Accueil
METAR-TAF:

METAR-TAF

Aéroports :

Aéroport international de Coni

Coni, Italie

latitude: 44-32-47N, longitude: 007-37-20E, altitude: 386 m

Observation

Le bulletin a été fait il y a 46 minutes, à 17:20 UTC
Vent 1 kt de direction variable
Température 26°C
Humidité 54%
Pression 1017 hPa
Visibilité 10 km ou plus

METAR: LIMZ 151720Z AUTO VRB01KT 9999 BKN055/// 26/16 Q1017

Heure: 20:06 (18:06 UTC)

Prévision

Le bulletin a été fait il y a 1 heure et 6 minutes, à 17:00 UTC
Prévision valable du 15 à 18 UTC au 16 à 18 UTC
Vent 5 kt de direction variable
Visibilité 10 km ou plus
Nuages épars à une hauteur de 2000 ft

TAF: LIMZ 151700Z 1518/1618 VRB05KT 9999 SCT020

Observations et prévisions météorologiques de plus de 4000 aéroports (messages METAR et TAF).

Les stations disponibles sont représentées par des disques jaunes et rouges sur la carte.

Passer la souris dessus pour voir le nom de la station.

Cliquer dessus pour voir les observations et prévisions météorologiques.

Pour changer de carte: cliquez sur les boutons verts avec une croix noire pour zoomer, sur le bouton vert avec un tiret pour effectuer un zoom arrière, ou sur les flèches vertes pour les cartes adjacentes.


METAR-TAF: